Tuesday, February 20, 2018, 10:35 AM EST
Back to Local

KBUF, Greater Buffalo International Airport

Location: Buffalo, NY, United States Lat: 42.933
Local Time: 10:35 AM EST (15:35 GMT) Lon: -78.733
Time Zone: US/Eastern Elev: 725 ft

Show me the last for .
Show Decoded

2018-02-20 09:54 METAR KBUF 201454Z 21013KT 4SM -RA BR FEW006 SCT018 OVC029 14/13 A3007 RMK AO2
                 SLP184 P0008 60023 T01440133 51006 =
2018-02-20 09:51 METAR KBUF 201451Z 21012KT 2SM -RA BR FEW006 BKN018 OVC031 14/13 A3007 RMK AO2
                 P0008 =
2018-02-20 09:32 METAR KBUF 201432Z 21011KT 3SM -RA BR SCT007 SCT016 OVC031 14/13 A3007 RMK AO2
                 P0007 T01390133 =
2018-02-20 09:15 METAR KBUF 201415Z 21014KT 2SM RA BR FEW008 BKN016 OVC033 14/13 A3007 RMK AO2
                 P0004 T01390128 =
2018-02-20 08:54 METAR KBUF 201354Z 21014KT 4SM RA BR BKN021 BKN036 OVC070 14/13 A3007 RMK AO2
                 SLP183 P0010 T01390128 =
2018-02-20 08:51 METAR KBUF 201351Z 21012KT 4SM RA BR BKN021 BKN036 OVC070 14/13 A3007 RMK AO2
                 P0009 =
2018-02-20 07:54 METAR KBUF 201254Z 21011KT 10SM -RA SCT027 BKN046 OVC075 14/12 A3005 RMK AO2
                 SLP178 P0005 T01440122 =
2018-02-20 07:42 METAR KBUF 201242Z 21011KT 5SM -RA BR SCT027 BKN046 OVC075 14/12 A3005 RMK AO2
                 P0005 T01440122 =
2018-02-20 07:19 METAR KBUF 201219Z 21011KT 10SM -RA BKN028 OVC090 14/12 A3006 RMK AO2 P0002
                 T01390122 =
2018-02-20 06:54 METAR KBUF 201154Z 21011KT 7SM RA SCT032 BKN080 OVC110 15/12 A3005 RMK AO2 RAB34
                 SLP176 P0002 60016 70104 T01500122 10150 20106 50005 =
2018-02-20 05:54 METAR KBUF 201054Z 20010KT 10SM BKN040 OVC085 14/12 A3005 RMK AO2 RAE14 SLP177
                 P0001 T01390122 =
2018-02-20 04:54 METAR KBUF 200954Z 21011KT 10SM -RA BKN070 OVC090 14/12 A3005 RMK AO2 RAB07
                 SLP177 P0003 T01390122 =
2018-02-20 03:54 METAR KBUF 200854Z 21011KT 3SM BR SCT070 OVC090 13/12 A3003 RMK AO2 SLP171 60010
                 T01280122 58005 =
2018-02-20 03:34 METAR KBUF 200834Z 20008KT 3SM BR SCT055 OVC070 12/11 A3003 RMK AO2 T01170111 =
2018-02-20 03:13 METAR KBUF 200813Z 19003KT 1/2SM R23/4000VP6000FT FG FEW043 OVC055 11/11 A3003
                 RMK AO2 T01060106 =
2018-02-20 03:02 METAR KBUF 200802Z 18004KT 1 1/2SM BR FEW043 BKN055 OVC080 11/11 A3003 RMK AO2
                 T01060106 =
2018-02-20 02:54 METAR KBUF 200754Z 18004KT 4SM BR FEW038 BKN045 OVC080 11/11 A3003 RMK AO2 RAE48
                 SLP174 P0008 T01110111 =
2018-02-20 02:36 METAR KBUF 200736Z 18006KT 3SM -RA BR SCT008 BKN038 OVC045 11/11 A3004 RMK AO2
                 P0007 T01110111 =
2018-02-20 02:21 METAR KBUF 200721Z 22008KT 5SM -RA BR BKN010 BKN018 OVC037 12/11 A3005 RMK AO2
                 P0005 T01170111 =
2018-02-20 01:54 METAR KBUF 200654Z 21006KT 3SM +RA BR BKN025 BKN031 OVC048 12/11 A3005 RMK AO2
                 SLP178 P0002 T01170111 =
2018-02-20 01:34 METAR KBUF 200634Z 20008KT 4SM -RA BR OVC027 12/12 A3004 RMK AO2 P0001 T01170117
                 =
2018-02-20 01:20 METAR KBUF 200620Z 21006KT 1 3/4SM -RA BR OVC026 12/12 A3005 RMK AO2 P0001
                 T01170117 =
2018-02-20 00:54 METAR KBUF 200554Z 26005KT 6SM -RA BR SCT013 OVC028 13/13 A3005 RMK AO2 SLP177
                 P0009 60048 T01280128 10144 20122 52011 =
2018-02-20 00:29 METAR KBUF 200529Z 27006KT 7SM -RA FEW013 BKN027 OVC034 13/13 A3005 RMK AO2
                 P0008 T01330128 =
2018-02-20 00:03 METAR KBUF 200503Z 22009KT 4SM RA BR FEW018 SCT029 OVC038 14/13 A3004 RMK AO2
                 P0005 T01440133 =
2018-02-19 23:54 METAR KBUF 200454Z 23010KT 2 1/2SM +RA BR FEW026 BKN033 OVC055 14/13 A3003 RMK
                 AO2 VIS 1 1/2V5 SLP173 P0012 T01440133 401441006 =
2018-02-19 23:48 METAR KBUF 200448Z 22013KT 2 1/2SM +RA BR BKN029 BKN039 OVC055 14/13 A3004 RMK
                 AO2 P0005 =
2018-02-19 22:54 METAR KBUF 200354Z 21014KT 10SM -RA FEW060 BKN100 OVC110 14/13 A3003 RMK AO2
                 SLP169 P0002 T01390128 =
2018-02-19 21:54 METAR KBUF 200254Z 19010KT 7SM -RA FEW010 BKN049 OVC085 13/12 A3001 RMK AO2
                 SLP166 P0015 60025 T01280122 50001 =
2018-02-19 21:44 METAR KBUF 200244Z 19011KT 7SM -RA FEW008 BKN049 OVC085 13/12 A3002 RMK AO2
                 P0014 T01280122 =
2018-02-19 21:25 METAR KBUF 200225Z 19011KT 3SM +RA BR FEW008 BKN020 OVC040 13/13 A3003 RMK AO2
                 P0011 T01330128 =
2018-02-19 21:06 METAR KBUF 200206Z 21015G21KT 2 1/2SM +RA BR SCT014 BKN022 OVC032 13/12 A3003
                 RMK AO2 P0005 T01330122 =
2018-02-19 20:54 METAR KBUF 200154Z 22015G20KT 3SM +RA BR BKN013 BKN020 OVC028 13/12 A3003 RMK
                 AO2 SLP172 P0008 T01280117 =
2018-02-19 19:54 METAR KBUF 200054Z 22016G22KT 10SM -RA FEW015 BKN028 OVC036 13/12 A3001 RMK AO2
                 PK WND 21027/0015 SLP166 P0002 T01280117 =
2018-02-19 19:36 METAR KBUF 200036Z 22015G24KT 10SM -RA FEW017 BKN028 OVC033 13/12 A3002 RMK AO2
                 PK WND 21027/0015 P0001 T01330117 =
2018-02-19 19:04 METAR KBUF 200004Z 22016G22KT 9SM -RA BKN014 OVC026 13/11 A3001 RMK AO2 P0001
                 T01280111 =
2018-02-19 18:54 METAR KBUF 192354Z 22015G22KT 6SM -RA BR FEW011 BKN016 OVC022 12/11 A3001 RMK
                 AO2 SLP166 P0011 60040 T01220111 10122 20089 58008 =
2018-02-19 18:12 METAR KBUF 192312Z 20007KT 5SM RA BR BKN013 OVC018 10/10 A3002 RMK AO2 P0007
                 T01000100 =
2018-02-19 17:54 METAR KBUF 192254Z 19008KT 3SM +RA BR BKN017 BKN022 OVC026 10/09 A3003 RMK AO2
                 SLP173 P0011 T01000094 =
2018-02-19 16:54 METAR KBUF 192154Z 20014KT 3SM RA BR BKN015 OVC047 10/09 A3003 RMK AO2 SLP174
                 P0012 T01000089 =
2018-02-19 16:05 METAR KBUF 192105Z 21012KT 5SM RA BR OVC015 09/08 A3004 RMK AO2 P0002 T00940083
                 =
2018-02-19 15:54 METAR KBUF 192054Z 20014KT 6SM RA BR OVC014 09/08 A3003 RMK AO2 SLP175 P0004
                 60006 T00890078 58004 =
2018-02-19 15:46 METAR KBUF 192046Z 20012KT 7SM -RA OVC014 09/08 A3003 RMK AO2 P0002 T00940078 =
2018-02-19 14:54 METAR KBUF 191954Z 20013KT 10SM -RA OVC015 09/08 A3004 RMK AO2 SLP177 P0002
                 T00890078 =
2018-02-19 13:54 METAR KBUF 191854Z 21015KT 10SM -RA BKN015 OVC025 09/07 A3005 RMK AO2 RAB43
                 SLP182 P0000 T00890067 =
2018-02-19 12:54 METAR KBUF 191754Z 21013KT 10SM BKN020 OVC030 09/06 A3005 RMK AO2 RAE03 SLP181
                 P0000 60000 T00890061 10094 20039 56012 =
2018-02-19 12:46 METAR KBUF 191746Z 20012KT 10SM BKN020 OVC030 09/06 A3004 RMK AO2 RAE03 P0000
                 T00890061 =
2018-02-19 11:54 METAR KBUF 191654Z 19013KT 10SM -RA SCT023 BKN030 OVC050 09/05 A3006 RMK AO2
                 RAB52 SLP184 P0000 T00890050 =
2018-02-19 10:54 METAR KBUF 191554Z 19016G22KT 10SM SCT060 BKN095 OVC200 09/03 A3007 RMK AO2
                 RAB31E44 SLP189 P0000 T00890033 =

Support USWX by starting your Amazon purchase here.